sensor_id;sensor_type;location;lat;lon;timestamp;temperature;humidity
1021;DHT22;499;42.648;23.270;2023-06-10T00:02:05;16.80;97.30
1021;DHT22;499;42.648;23.270;2023-06-10T00:04:33;16.60;96.20
1021;DHT22;499;42.648;23.270;2023-06-10T00:07:02;16.60;97.70
1021;DHT22;499;42.648;23.270;2023-06-10T00:09:29;16.70;97.90
1021;DHT22;499;42.648;23.270;2023-06-10T00:11:56;16.60;97.60
1021;DHT22;499;42.648;23.270;2023-06-10T00:14:27;16.50;98.50
1021;DHT22;499;42.648;23.270;2023-06-10T00:16:54;16.40;99.50
1021;DHT22;499;42.648;23.270;2023-06-10T00:19:23;16.30;99.90
1021;DHT22;499;42.648;23.270;2023-06-10T00:21:51;16.10;99.90
1021;DHT22;499;42.648;23.270;2023-06-10T00:24:18;16.10;99.90
1021;DHT22;499;42.648;23.270;2023-06-10T00:26:45;16.10;99.90
1021;DHT22;499;42.648;23.270;2023-06-10T00:29:13;16.10;99.90
1021;DHT22;499;42.648;23.270;2023-06-10T00:31:42;16.00;99.90
1021;DHT22;499;42.648;23.270;2023-06-10T00:34:08;16.00;99.90
1021;DHT22;499;42.648;23.270;2023-06-10T00:36:36;15.90;99.90
1021;DHT22;499;42.648;23.270;2023-06-10T00:39:03;15.90;99.90
1021;DHT22;499;42.648;23.270;2023-06-10T00:41:30;16.00;99.90
1021;DHT22;499;42.648;23.270;2023-06-10T00:43:59;16.00;99.90
1021;DHT22;499;42.648;23.270;2023-06-10T00:46:26;16.10;99.90
1021;DHT22;499;42.648;23.270;2023-06-10T00:48:55;16.10;99.90
1021;DHT22;499;42.648;23.270;2023-06-10T00:51:22;16.20;99.90
1021;DHT22;499;42.648;23.270;2023-06-10T00:53:49;16.20;99.90
1021;DHT22;499;42.648;23.270;2023-06-10T00:56:17;16.30;99.90
1021;DHT22;499;42.648;23.270;2023-06-10T00:58:44;16.30;99.90
1021;DHT22;499;42.648;23.270;2023-06-10T01:01:11;16.20;99.90
1021;DHT22;499;42.648;23.270;2023-06-10T01:03:39;16.20;99.90
1021;DHT22;499;42.648;23.270;2023-06-10T01:06:17;16.20;99.90
1021;DHT22;499;42.648;23.270;2023-06-10T01:08:52;16.10;99.90
1021;DHT22;499;42.648;23.270;2023-06-10T01:11:24;16.10;99.90
1021;DHT22;499;42.648;23.270;2023-06-10T01:13:53;16.00;99.90
1021;DHT22;499;42.648;23.270;2023-06-10T01:16:22;16.00;99.90
1021;DHT22;499;42.648;23.270;2023-06-10T01:18:49;16.00;99.90
1021;DHT22;499;42.648;23.270;2023-06-10T01:21:21;16.10;99.90
1021;DHT22;499;42.648;23.270;2023-06-10T01:23:50;16.10;99.90
1021;DHT22;499;42.648;23.270;2023-06-10T01:26:20;16.20;99.90
1021;DHT22;499;42.648;23.270;2023-06-10T01:28:52;16.20;99.90
1021;DHT22;499;42.648;23.270;2023-06-10T01:31:29;16.20;99.90
1021;DHT22;499;42.648;23.270;2023-06-10T01:34:01;16.20;99.90
1021;DHT22;499;42.648;23.270;2023-06-10T01:36:32;16.30;99.90
1021;DHT22;499;42.648;23.270;2023-06-10T01:39:00;16.30;99.90
1021;DHT22;499;42.648;23.270;2023-06-10T01:41:28;16.30;99.90
1021;DHT22;499;42.648;23.270;2023-06-10T01:43:56;16.50;99.90
1021;DHT22;499;42.648;23.270;2023-06-10T01:46:23;16.50;99.90
1021;DHT22;499;42.648;23.270;2023-06-10T01:48:50;16.50;99.90
1021;DHT22;499;42.648;23.270;2023-06-10T01:51:17;16.50;99.90
1021;DHT22;499;42.648;23.270;2023-06-10T01:53:46;16.50;99.90
1021;DHT22;499;42.648;23.270;2023-06-10T01:56:13;16.50;99.90
1021;DHT22;499;42.648;23.270;2023-06-10T01:58:43;16.50;99.90
1021;DHT22;499;42.648;23.270;2023-06-10T02:01:11;16.50;99.90
1021;DHT22;499;42.648;23.270;2023-06-10T02:03:38;16.50;99.90
1021;DHT22;499;42.648;23.270;2023-06-10T02:06:05;16.40;99.90
1021;DHT22;499;42.648;23.270;2023-06-10T02:08:32;16.40;99.90
1021;DHT22;499;42.648;23.270;2023-06-10T02:11:01;16.30;99.90
1021;DHT22;499;42.648;23.270;2023-06-10T02:13:28;16.30;99.90
1021;DHT22;499;42.648;23.270;2023-06-10T02:15:55;16.30;99.90
1021;DHT22;499;42.648;23.270;2023-06-10T02:18:22;16.30;99.90
1021;DHT22;499;42.648;23.270;2023-06-10T02:20:49;16.30;99.90
1021;DHT22;499;42.648;23.270;2023-06-10T02:23:16;16.30;99.90
1021;DHT22;499;42.648;23.270;2023-06-10T02:25:44;16.30;99.90
1021;DHT22;499;42.648;23.270;2023-06-10T02:28:12;16.20;99.90
1021;DHT22;499;42.648;23.270;2023-06-10T02:30:40;16.20;99.90
1021;DHT22;499;42.648;23.270;2023-06-10T02:33:08;16.10;99.90
1021;DHT22;499;42.648;23.270;2023-06-10T02:35:36;16.10;99.90
1021;DHT22;499;42.648;23.270;2023-06-10T02:38:03;16.10;99.90
1021;DHT22;499;42.648;23.270;2023-06-10T02:40:31;16.10;99.90
1021;DHT22;499;42.648;23.270;2023-06-10T02:42:58;16.10;99.90
1021;DHT22;499;42.648;23.270;2023-06-10T02:45:26;16.10;99.90
1021;DHT22;499;42.648;23.270;2023-06-10T02:47:53;16.10;99.90
1021;DHT22;499;42.648;23.270;2023-06-10T02:50:20;16.00;99.90
1021;DHT22;499;42.648;23.270;2023-06-10T02:52:48;16.10;99.90
1021;DHT22;499;42.648;23.270;2023-06-10T02:55:15;16.10;99.90
1021;DHT22;499;42.648;23.270;2023-06-10T02:57:42;16.10;99.90
1021;DHT22;499;42.648;23.270;2023-06-10T03:00:10;16.20;99.90
1021;DHT22;499;42.648;23.270;2023-06-10T03:02:41;16.20;99.90
1021;DHT22;499;42.648;23.270;2023-06-10T03:05:08;16.30;99.90
1021;DHT22;499;42.648;23.270;2023-06-10T03:07:36;16.30;99.90
1021;DHT22;499;42.648;23.270;2023-06-10T03:10:04;16.40;99.90
1021;DHT22;499;42.648;23.270;2023-06-10T03:12:31;16.40;99.90
1021;DHT22;499;42.648;23.270;2023-06-10T03:14:58;16.40;99.90
1021;DHT22;499;42.648;23.270;2023-06-10T03:17:26;16.30;99.90
1021;DHT22;499;42.648;23.270;2023-06-10T03:19:54;16.30;99.90
1021;DHT22;499;42.648;23.270;2023-06-10T03:22:21;16.20;99.90
1021;DHT22;499;42.648;23.270;2023-06-10T03:24:48;16.20;99.90
1021;DHT22;499;42.648;23.270;2023-06-10T03:27:15;16.20;99.90
1021;DHT22;499;42.648;23.270;2023-06-10T03:29:43;16.20;99.90
1021;DHT22;499;42.648;23.270;2023-06-10T03:32:10;16.20;99.90
1021;DHT22;499;42.648;23.270;2023-06-10T03:34:37;16.10;99.90
1021;DHT22;499;42.648;23.270;2023-06-10T03:37:07;16.20;99.90
1021;DHT22;499;42.648;23.270;2023-06-10T03:39:34;16.20;99.90
1021;DHT22;499;42.648;23.270;2023-06-10T03:42:01;16.30;99.90
1021;DHT22;499;42.648;23.270;2023-06-10T03:44:28;16.20;99.90
1021;DHT22;499;42.648;23.270;2023-06-10T03:46:55;16.30;99.90
1021;DHT22;499;42.648;23.270;2023-06-10T03:49:23;16.40;99.90
1021;DHT22;499;42.648;23.270;2023-06-10T03:51:51;16.50;99.90
1021;DHT22;499;42.648;23.270;2023-06-10T03:54:19;16.50;99.90
1021;DHT22;499;42.648;23.270;2023-06-10T03:56:48;16.60;99.90
1021;DHT22;499;42.648;23.270;2023-06-10T03:59:15;16.70;99.90
1021;DHT22;499;42.648;23.270;2023-06-10T04:01:42;16.70;99.90
1021;DHT22;499;42.648;23.270;2023-06-10T04:04:09;16.90;99.90
1021;DHT22;499;42.648;23.270;2023-06-10T04:06:37;16.90;99.90
1021;DHT22;499;42.648;23.270;2023-06-10T04:09:04;17.00;99.90
1021;DHT22;499;42.648;23.270;2023-06-10T04:11:32;17.00;99.90
1021;DHT22;499;42.648;23.270;2023-06-10T04:13:59;17.00;99.90
1021;DHT22;499;42.648;23.270;2023-06-10T04:16:26;17.10;99.90
1021;DHT22;499;42.648;23.270;2023-06-10T04:18:53;17.20;99.90
1021;DHT22;499;42.648;23.270;2023-06-10T04:21:21;17.20;99.90
1021;DHT22;499;42.648;23.270;2023-06-10T04:23:48;17.30;99.90
1021;DHT22;499;42.648;23.270;2023-06-10T04:26:15;17.40;99.90
1021;DHT22;499;42.648;23.270;2023-06-10T04:28:44;17.50;98.00
1021;DHT22;499;42.648;23.270;2023-06-10T04:31:11;17.40;96.70
1021;DHT22;499;42.648;23.270;2023-06-10T04:33:38;17.30;98.70
1021;DHT22;499;42.648;23.270;2023-06-10T04:36:06;17.20;99.90
1021;DHT22;499;42.648;23.270;2023-06-10T04:38:33;17.30;99.90
1021;DHT22;499;42.648;23.270;2023-06-10T04:41:00;17.50;99.90
1021;DHT22;499;42.648;23.270;2023-06-10T04:43:28;17.60;99.50
1021;DHT22;499;42.648;23.270;2023-06-10T04:45:57;17.60;99.60
1021;DHT22;499;42.648;23.270;2023-06-10T04:48:25;17.80;99.90
1021;DHT22;499;42.648;23.270;2023-06-10T04:50:52;18.00;98.10
1021;DHT22;499;42.648;23.270;2023-06-10T04:53:19;18.20;95.30
1021;DHT22;499;42.648;23.270;2023-06-10T04:55:46;18.40;93.80
1021;DHT22;499;42.648;23.270;2023-06-10T04:58:13;18.40;90.80
1021;DHT22;499;42.648;23.270;2023-06-10T05:00:41;18.20;90.50
1021;DHT22;499;42.648;23.270;2023-06-10T05:03:10;18.00;91.30
1021;DHT22;499;42.648;23.270;2023-06-10T05:05:37;18.00;93.70
1021;DHT22;499;42.648;23.270;2023-06-10T05:08:04;18.00;92.90
1021;DHT22;499;42.648;23.270;2023-06-10T05:10:31;18.00;93.20
1021;DHT22;499;42.648;23.270;2023-06-10T05:12:59;18.00;92.20
1021;DHT22;499;42.648;23.270;2023-06-10T05:15:26;18.00;92.60
1021;DHT22;499;42.648;23.270;2023-06-10T05:17:56;18.00;93.50
1021;DHT22;499;42.648;23.270;2023-06-10T05:20:24;18.10;92.00
1021;DHT22;499;42.648;23.270;2023-06-10T05:22:52;18.10;91.60
1021;DHT22;499;42.648;23.270;2023-06-10T05:25:19;18.20;92.10
1021;DHT22;499;42.648;23.270;2023-06-10T05:27:46;18.20;92.30
1021;DHT22;499;42.648;23.270;2023-06-10T05:30:13;18.30;90.90
1021;DHT22;499;42.648;23.270;2023-06-10T05:32:40;18.30;91.30
1021;DHT22;499;42.648;23.270;2023-06-10T05:35:07;18.10;92.50
1021;DHT22;499;42.648;23.270;2023-06-10T05:37:36;18.00;94.80
1021;DHT22;499;42.648;23.270;2023-06-10T05:40:04;18.00;96.30
1021;DHT22;499;42.648;23.270;2023-06-10T05:42:31;18.00;94.60
1021;DHT22;499;42.648;23.270;2023-06-10T05:44:58;18.10;95.00
1021;DHT22;499;42.648;23.270;2023-06-10T05:47:25;18.10;93.40
1021;DHT22;499;42.648;23.270;2023-06-10T05:49:52;18.10;94.00
1021;DHT22;499;42.648;23.270;2023-06-10T05:52:19;18.20;94.80
1021;DHT22;499;42.648;23.270;2023-06-10T05:54:49;18.30;94.40
1021;DHT22;499;42.648;23.270;2023-06-10T05:57:16;18.60;93.20
1021;DHT22;499;42.648;23.270;2023-06-10T05:59:43;18.80;93.10
1021;DHT22;499;42.648;23.270;2023-06-10T06:02:10;19.00;91.80
1021;DHT22;499;42.648;23.270;2023-06-10T06:04:37;19.10;86.70
1021;DHT22;499;42.648;23.270;2023-06-10T06:07:04;19.00;87.40
1021;DHT22;499;42.648;23.270;2023-06-10T06:09:32;18.90;91.30
1021;DHT22;499;42.648;23.270;2023-06-10T06:12:00;18.80;91.60
1021;DHT22;499;42.648;23.270;2023-06-10T06:14:31;18.60;93.50
1021;DHT22;499;42.648;23.270;2023-06-10T06:16:58;18.40;94.70
1021;DHT22;499;42.648;23.270;2023-06-10T06:19:25;18.30;92.90
1021;DHT22;499;42.648;23.270;2023-06-10T06:21:52;18.30;95.20
1021;DHT22;499;42.648;23.270;2023-06-10T06:24:19;18.70;96.60
1021;DHT22;499;42.648;23.270;2023-06-10T06:26:46;19.00;92.60
1021;DHT22;499;42.648;23.270;2023-06-10T06:29:14;19.20;88.10
1021;DHT22;499;42.648;23.270;2023-06-10T06:31:41;19.40;87.00
1021;DHT22;499;42.648;23.270;2023-06-10T06:34:08;19.40;80.50
1021;DHT22;499;42.648;23.270;2023-06-10T06:36:35;19.30;79.50
1021;DHT22;499;42.648;23.270;2023-06-10T06:39:02;19.30;80.80
1021;DHT22;499;42.648;23.270;2023-06-10T06:41:29;19.20;72.40
1021;DHT22;499;42.648;23.270;2023-06-10T06:43:57;19.40;77.50
1021;DHT22;499;42.648;23.270;2023-06-10T06:46:25;19.30;72.60
1021;DHT22;499;42.648;23.270;2023-06-10T06:48:54;19.50;72.10
1021;DHT22;499;42.648;23.270;2023-06-10T06:51:21;19.40;71.40
1021;DHT22;499;42.648;23.270;2023-06-10T06:53:48;19.60;67.90
1021;DHT22;499;42.648;23.270;2023-06-10T06:56:16;19.50;66.40
1021;DHT22;499;42.648;23.270;2023-06-10T06:58:43;19.70;69.50
1021;DHT22;499;42.648;23.270;2023-06-10T07:01:10;20.00;67.50
1021;DHT22;499;42.648;23.270;2023-06-10T07:03:39;20.30;67.00
1021;DHT22;499;42.648;23.270;2023-06-10T07:06:06;20.40;58.80
1021;DHT22;499;42.648;23.270;2023-06-10T07:08:33;20.50;57.80
1021;DHT22;499;42.648;23.270;2023-06-10T07:11:00;20.60;54.30
1021;DHT22;499;42.648;23.270;2023-06-10T07:13:27;20.10;48.00
1021;DHT22;499;42.648;23.270;2023-06-10T07:15:54;20.20;49.30
1021;DHT22;499;42.648;23.270;2023-06-10T07:18:21;20.30;44.80
1021;DHT22;499;42.648;23.270;2023-06-10T07:20:49;20.30;47.20
1021;DHT22;499;42.648;23.270;2023-06-10T07:23:16;20.40;49.50
1021;DHT22;499;42.648;23.270;2023-06-10T07:25:43;20.40;45.10
1021;DHT22;499;42.648;23.270;2023-06-10T07:28:10;20.40;44.80
1021;DHT22;499;42.648;23.270;2023-06-10T07:30:37;20.50;44.20
1021;DHT22;499;42.648;23.270;2023-06-10T07:33:05;20.70;44.30
1021;DHT22;499;42.648;23.270;2023-06-10T07:35:33;20.90;44.60
1021;DHT22;499;42.648;23.270;2023-06-10T07:38:01;21.20;43.80
1021;DHT22;499;42.648;23.270;2023-06-10T07:40:28;21.20;41.80
1021;DHT22;499;42.648;23.270;2023-06-10T07:42:55;21.10;42.10
1021;DHT22;499;42.648;23.270;2023-06-10T07:45:22;21.00;40.50
1021;DHT22;499;42.648;23.270;2023-06-10T07:47:50;21.20;40.70
1021;DHT22;499;42.648;23.270;2023-06-10T07:50:17;21.20;36.90
1021;DHT22;499;42.648;23.270;2023-06-10T07:52:44;21.10;35.80
1021;DHT22;499;42.648;23.270;2023-06-10T07:55:13;21.30;35.90
1021;DHT22;499;42.648;23.270;2023-06-10T07:57:40;21.40;37.50
1021;DHT22;499;42.648;23.270;2023-06-10T08:00:08;21.20;34.60
1021;DHT22;499;42.648;23.270;2023-06-10T08:02:35;21.10;36.20
1021;DHT22;499;42.648;23.270;2023-06-10T08:05:03;21.30;40.20
1021;DHT22;499;42.648;23.270;2023-06-10T08:07:31;21.20;36.80
1021;DHT22;499;42.648;23.270;2023-06-10T08:09:58;21.20;35.00
1021;DHT22;499;42.648;23.270;2023-06-10T08:12:26;20.90;30.00
1021;DHT22;499;42.648;23.270;2023-06-10T08:14:53;20.80;31.70
1021;DHT22;499;42.648;23.270;2023-06-10T08:17:21;20.90;29.60
1021;DHT22;499;42.648;23.270;2023-06-10T08:19:48;20.70;28.80
1021;DHT22;499;42.648;23.270;2023-06-10T08:22:15;20.90;29.70
1021;DHT22;499;42.648;23.270;2023-06-10T08:24:42;21.20;29.50
1021;DHT22;499;42.648;23.270;2023-06-10T08:27:09;21.30;27.00
1021;DHT22;499;42.648;23.270;2023-06-10T08:29:39;21.20;26.90
1021;DHT22;499;42.648;23.270;2023-06-10T08:32:06;20.90;26.70
1021;DHT22;499;42.648;23.270;2023-06-10T08:34:33;21.10;29.00
1021;DHT22;499;42.648;23.270;2023-06-10T08:37:01;21.30;28.30
1021;DHT22;499;42.648;23.270;2023-06-10T08:39:28;21.50;27.10
1021;DHT22;499;42.648;23.270;2023-06-10T08:42:04;21.70;26.30
1021;DHT22;499;42.648;23.270;2023-06-10T08:44:31;21.80;24.70
1021;DHT22;499;42.648;23.270;2023-06-10T08:47:07;21.80;24.80
1021;DHT22;499;42.648;23.270;2023-06-10T08:49:42;21.90;24.30
1021;DHT22;499;42.648;23.270;2023-06-10T08:52:13;22.00;25.70
1021;DHT22;499;42.648;23.270;2023-06-10T08:54:43;22.10;24.40
1021;DHT22;499;42.648;23.270;2023-06-10T08:57:10;22.20;24.90
1021;DHT22;499;42.648;23.270;2023-06-10T08:59:37;22.30;22.80
1021;DHT22;499;42.648;23.270;2023-06-10T09:02:07;22.40;23.70
1021;DHT22;499;42.648;23.270;2023-06-10T09:04:36;22.50;23.90
1021;DHT22;499;42.648;23.270;2023-06-10T09:07:04;22.70;24.00
1021;DHT22;499;42.648;23.270;2023-06-10T09:09:32;22.70;22.20
1021;DHT22;499;42.648;23.270;2023-06-10T09:12:01;22.80;23.30
1021;DHT22;499;42.648;23.270;2023-06-10T09:14:29;23.00;22.30
1021;DHT22;499;42.648;23.270;2023-06-10T09:16:56;23.10;21.90
1021;DHT22;499;42.648;23.270;2023-06-10T09:19:25;23.20;22.40
1021;DHT22;499;42.648;23.270;2023-06-10T09:21:53;23.30;20.80
1021;DHT22;499;42.648;23.270;2023-06-10T09:24:22;23.40;22.10
1021;DHT22;499;42.648;23.270;2023-06-10T09:26:49;23.50;20.50
1021;DHT22;499;42.648;23.270;2023-06-10T09:29:16;23.60;20.60
1021;DHT22;499;42.648;23.270;2023-06-10T09:31:44;23.80;21.30
1021;DHT22;499;42.648;23.270;2023-06-10T09:34:12;24.00;20.80
1021;DHT22;499;42.648;23.270;2023-06-10T09:36:41;24.10;20.90
1021;DHT22;499;42.648;23.270;2023-06-10T09:39:14;23.90;19.70
1021;DHT22;499;42.648;23.270;2023-06-10T09:41:42;23.70;20.60
1021;DHT22;499;42.648;23.270;2023-06-10T09:44:12;23.70;21.20
1021;DHT22;499;42.648;23.270;2023-06-10T09:46:41;23.50;19.50
1021;DHT22;499;42.648;23.270;2023-06-10T09:49:08;23.20;20.40
1021;DHT22;499;42.648;23.270;2023-06-10T09:51:35;23.20;19.90
1021;DHT22;499;42.648;23.270;2023-06-10T09:54:04;23.00;21.00
1021;DHT22;499;42.648;23.270;2023-06-10T09:56:34;23.20;19.90
1021;DHT22;499;42.648;23.270;2023-06-10T09:59:02;23.20;21.00
1021;DHT22;499;42.648;23.270;2023-06-10T10:01:30;23.30;21.20
1021;DHT22;499;42.648;23.270;2023-06-10T10:03:59;23.50;21.00
1021;DHT22;499;42.648;23.270;2023-06-10T10:06:26;23.60;19.30
1021;DHT22;499;42.648;23.270;2023-06-10T10:08:54;23.70;19.00
1021;DHT22;499;42.648;23.270;2023-06-10T10:11:23;23.70;20.00
1021;DHT22;499;42.648;23.270;2023-06-10T10:13:52;23.80;19.50
1021;DHT22;499;42.648;23.270;2023-06-10T10:16:23;23.90;18.30
1021;DHT22;499;42.648;23.270;2023-06-10T10:18:55;24.20;21.00
1021;DHT22;499;42.648;23.270;2023-06-10T10:21:24;24.40;19.10
1021;DHT22;499;42.648;23.270;2023-06-10T10:23:57;24.50;17.30
1021;DHT22;499;42.648;23.270;2023-06-10T10:26:29;24.50;16.50
1021;DHT22;499;42.648;23.270;2023-06-10T10:29:05;24.40;17.80
1021;DHT22;499;42.648;23.270;2023-06-10T10:31:35;24.30;19.30
1021;DHT22;499;42.648;23.270;2023-06-10T10:34:06;24.30;17.40
1021;DHT22;499;42.648;23.270;2023-06-10T10:36:34;24.30;18.50
1021;DHT22;499;42.648;23.270;2023-06-10T10:39:04;24.50;19.50
1021;DHT22;499;42.648;23.270;2023-06-10T10:41:33;24.60;16.80
1021;DHT22;499;42.648;23.270;2023-06-10T10:44:01;24.70;15.90
1021;DHT22;499;42.648;23.270;2023-06-10T10:46:31;24.60;15.60
1021;DHT22;499;42.648;23.270;2023-06-10T10:49:09;24.80;17.30
1021;DHT22;499;42.648;23.270;2023-06-10T10:51:37;25.10;15.90
1021;DHT22;499;42.648;23.270;2023-06-10T10:54:11;25.40;16.70
1021;DHT22;499;42.648;23.270;2023-06-10T10:56:54;25.60;14.70
1021;DHT22;499;42.648;23.270;2023-06-10T10:59:51;25.60;13.60
1021;DHT22;499;42.648;23.270;2023-06-10T11:02:19;25.00;15.10
1021;DHT22;499;42.648;23.270;2023-06-10T11:04:58;25.10;16.00
1021;DHT22;499;42.648;23.270;2023-06-10T11:07:25;25.20;15.20
1021;DHT22;499;42.648;23.270;2023-06-10T11:09:59;24.90;14.90
1021;DHT22;499;42.648;23.270;2023-06-10T11:12:43;24.80;16.20
1021;DHT22;499;42.648;23.270;2023-06-10T11:15:18;24.80;16.20
1021;DHT22;499;42.648;23.270;2023-06-10T11:18:08;25.00;16.40
1021;DHT22;499;42.648;23.270;2023-06-10T11:20:50;25.20;14.30
1021;DHT22;499;42.648;23.270;2023-06-10T11:23:34;25.10;14.20
1021;DHT22;499;42.648;23.270;2023-06-10T11:26:19;25.10;15.40
1021;DHT22;499;42.648;23.270;2023-06-10T11:29:10;25.30;15.70
1021;DHT22;499;42.648;23.270;2023-06-10T11:31:45;25.60;13.60
1021;DHT22;499;42.648;23.270;2023-06-10T11:34:13;25.60;11.40
1021;DHT22;499;42.648;23.270;2023-06-10T11:36:42;25.80;12.20
1021;DHT22;499;42.648;23.270;2023-06-10T11:39:11;25.90;13.30
1021;DHT22;499;42.648;23.270;2023-06-10T11:41:39;26.00;13.80
1021;DHT22;499;42.648;23.270;2023-06-10T11:44:11;26.20;12.20
1021;DHT22;499;42.648;23.270;2023-06-10T11:46:39;26.10;13.10
1021;DHT22;499;42.648;23.270;2023-06-10T11:49:08;26.10;13.90
1021;DHT22;499;42.648;23.270;2023-06-10T11:51:36;26.10;13.10
1021;DHT22;499;42.648;23.270;2023-06-10T11:54:04;26.20;12.90
1021;DHT22;499;42.648;23.270;2023-06-10T11:56:32;26.20;13.30
1021;DHT22;499;42.648;23.270;2023-06-10T11:59:00;26.00;12.70
1021;DHT22;499;42.648;23.270;2023-06-10T12:01:32;26.00;13.80
1021;DHT22;499;42.648;23.270;2023-06-10T12:04:02;25.90;11.90
1021;DHT22;499;42.648;23.270;2023-06-10T12:06:38;26.00;12.20
1021;DHT22;499;42.648;23.270;2023-06-10T12:09:05;26.10;13.90
1021;DHT22;499;42.648;23.270;2023-06-10T12:11:33;26.30;13.30
1021;DHT22;499;42.648;23.270;2023-06-10T12:14:00;26.20;12.70
1021;DHT22;499;42.648;23.270;2023-06-10T12:16:31;26.40;14.00
1021;DHT22;499;42.648;23.270;2023-06-10T12:19:02;26.60;14.10
1021;DHT22;499;42.648;23.270;2023-06-10T12:21:30;26.90;13.20
1021;DHT22;499;42.648;23.270;2023-06-10T12:24:02;27.00;11.40
1021;DHT22;499;42.648;23.270;2023-06-10T12:26:40;27.10;11.20
1021;DHT22;499;42.648;23.270;2023-06-10T12:29:28;27.00;11.10
1021;DHT22;499;42.648;23.270;2023-06-10T12:31:58;26.50;12.80
1021;DHT22;499;42.648;23.270;2023-06-10T12:34:34;26.20;12.30
1021;DHT22;499;42.648;23.270;2023-06-10T12:37:02;25.90;13.80
1021;DHT22;499;42.648;23.270;2023-06-10T12:39:30;25.60;13.00
1021;DHT22;499;42.648;23.270;2023-06-10T12:41:57;25.50;13.60
1021;DHT22;499;42.648;23.270;2023-06-10T12:44:35;25.40;13.50
1021;DHT22;499;42.648;23.270;2023-06-10T12:47:09;25.30;13.50
1021;DHT22;499;42.648;23.270;2023-06-10T12:49:38;25.40;14.10
1021;DHT22;499;42.648;23.270;2023-06-10T12:52:06;25.60;13.60
1021;DHT22;499;42.648;23.270;2023-06-10T12:54:33;25.60;12.10
1021;DHT22;499;42.648;23.270;2023-06-10T12:57:00;25.80;10.70
1021;DHT22;499;42.648;23.270;2023-06-10T12:59:27;25.80;9.70
1021;DHT22;499;42.648;23.270;2023-06-10T13:01:55;25.60;10.50
1021;DHT22;499;42.648;23.270;2023-06-10T13:04:23;25.40;10.30
1021;DHT22;499;42.648;23.270;2023-06-10T13:06:50;25.10;11.20
1021;DHT22;499;42.648;23.270;2023-06-10T13:09:18;24.90;13.20
1021;DHT22;499;42.648;23.270;2023-06-10T13:11:45;25.00;11.90
1021;DHT22;499;42.648;23.270;2023-06-10T13:14:12;24.80;11.80
1021;DHT22;499;42.648;23.270;2023-06-10T13:16:39;24.80;12.30
1021;DHT22;499;42.648;23.270;2023-06-10T13:19:06;24.60;12.30
1021;DHT22;499;42.648;23.270;2023-06-10T13:21:34;24.40;11.90
1021;DHT22;499;42.648;23.270;2023-06-10T13:24:02;24.30;12.90
1021;DHT22;499;42.648;23.270;2023-06-10T13:26:29;23.80;16.00
1021;DHT22;499;42.648;23.270;2023-06-10T13:28:56;23.60;17.50
1021;DHT22;499;42.648;23.270;2023-06-10T13:31:23;22.80;18.80
1021;DHT22;499;42.648;23.270;2023-06-10T13:33:53;22.30;19.70
1021;DHT22;499;42.648;23.270;2023-06-10T13:36:20;22.00;20.80
1021;DHT22;499;42.648;23.270;2023-06-10T13:38:49;22.00;21.30
1021;DHT22;499;42.648;23.270;2023-06-10T13:41:16;21.90;21.30
1021;DHT22;499;42.648;23.270;2023-06-10T13:43:43;21.50;21.70
1021;DHT22;499;42.648;23.270;2023-06-10T13:46:10;21.70;22.70
1021;DHT22;499;42.648;23.270;2023-06-10T13:48:37;21.50;22.30
1021;DHT22;499;42.648;23.270;2023-06-10T13:51:04;21.40;23.10
1021;DHT22;499;42.648;23.270;2023-06-10T13:53:32;21.20;24.30
1021;DHT22;499;42.648;23.270;2023-06-10T13:56:01;21.10;26.80
1021;DHT22;499;42.648;23.270;2023-06-10T13:58:28;21.10;28.70
1021;DHT22;499;42.648;23.270;2023-06-10T14:00:55;21.10;29.70
1021;DHT22;499;42.648;23.270;2023-06-10T14:03:22;21.00;33.70
1021;DHT22;499;42.648;23.270;2023-06-10T14:05:50;20.70;31.30
1021;DHT22;499;42.648;23.270;2023-06-10T14:08:17;20.90;40.10
1021;DHT22;499;42.648;23.270;2023-06-10T14:10:44;20.80;38.00
1021;DHT22;499;42.648;23.270;2023-06-10T14:13:12;20.70;41.50
1021;DHT22;499;42.648;23.270;2023-06-10T14:15:39;20.90;37.70
1021;DHT22;499;42.648;23.270;2023-06-10T14:18:06;21.10;35.80
1021;DHT22;499;42.648;23.270;2023-06-10T14:20:33;21.20;34.60
1021;DHT22;499;42.648;23.270;2023-06-10T14:23:00;21.00;30.70
1021;DHT22;499;42.648;23.270;2023-06-10T14:25:27;21.00;33.30
1021;DHT22;499;42.648;23.270;2023-06-10T14:27:54;20.90;33.50
1021;DHT22;499;42.648;23.270;2023-06-10T14:30:23;21.10;35.50
1021;DHT22;499;42.648;23.270;2023-06-10T14:32:50;21.20;33.00
1021;DHT22;499;42.648;23.270;2023-06-10T14:35:17;21.10;35.10
1021;DHT22;499;42.648;23.270;2023-06-10T14:37:44;21.20;36.70
1021;DHT22;499;42.648;23.270;2023-06-10T14:40:11;21.40;36.90
1021;DHT22;499;42.648;23.270;2023-06-10T14:42:38;21.50;36.10
1021;DHT22;499;42.648;23.270;2023-06-10T14:45:06;21.80;34.10
1021;DHT22;499;42.648;23.270;2023-06-10T14:47:35;21.80;30.70
1021;DHT22;499;42.648;23.270;2023-06-10T14:50:02;21.80;29.00
1021;DHT22;499;42.648;23.270;2023-06-10T14:52:29;21.80;29.80
1021;DHT22;499;42.648;23.270;2023-06-10T14:54:56;22.00;31.10
1021;DHT22;499;42.648;23.270;2023-06-10T14:57:23;22.30;31.00
1021;DHT22;499;42.648;23.270;2023-06-10T14:59:50;22.40;30.40
1021;DHT22;499;42.648;23.270;2023-06-10T15:02:17;22.80;29.10
1021;DHT22;499;42.648;23.270;2023-06-10T15:04:46;23.00;28.10
1021;DHT22;499;42.648;23.270;2023-06-10T15:07:13;23.20;28.00
1021;DHT22;499;42.648;23.270;2023-06-10T15:09:41;23.20;25.90
1021;DHT22;499;42.648;23.270;2023-06-10T15:12:08;23.20;25.50
1021;DHT22;499;42.648;23.270;2023-06-10T15:14:36;24.10;24.20
1021;DHT22;499;42.648;23.270;2023-06-10T15:17:03;24.60;24.00
1021;DHT22;499;42.648;23.270;2023-06-10T15:19:30;25.30;19.90
1021;DHT22;499;42.648;23.270;2023-06-10T15:21:59;25.00;19.50
1021;DHT22;499;42.648;23.270;2023-06-10T15:24:28;25.50;19.20
1021;DHT22;499;42.648;23.270;2023-06-10T15:26:55;26.80;16.30
1021;DHT22;499;42.648;23.270;2023-06-10T15:29:22;27.50;13.60
1021;DHT22;499;42.648;23.270;2023-06-10T15:31:49;27.60;12.40
1021;DHT22;499;42.648;23.270;2023-06-10T15:34:16;27.70;11.00
1021;DHT22;499;42.648;23.270;2023-06-10T15:36:43;28.50;9.00
1021;DHT22;499;42.648;23.270;2023-06-10T15:39:12;29.10;7.00
1021;DHT22;499;42.648;23.270;2023-06-10T15:41:39;27.90;10.10
1021;DHT22;499;42.648;23.270;2023-06-10T15:44:06;27.40;10.90
1021;DHT22;499;42.648;23.270;2023-06-10T15:46:33;27.50;11.40
1021;DHT22;499;42.648;23.270;2023-06-10T15:49:00;27.20;11.10
1021;DHT22;499;42.648;23.270;2023-06-10T15:51:28;26.10;12.70
1021;DHT22;499;42.648;23.270;2023-06-10T15:53:55;26.20;12.40
1021;DHT22;499;42.648;23.270;2023-06-10T15:56:23;26.60;10.90
1021;DHT22;499;42.648;23.270;2023-06-10T15:58:51;26.60;11.10
1021;DHT22;499;42.648;23.270;2023-06-10T16:01:18;26.90;10.30
1021;DHT22;499;42.648;23.270;2023-06-10T16:03:45;27.20;10.60
1021;DHT22;499;42.648;23.270;2023-06-10T16:06:12;26.60;11.80
1021;DHT22;499;42.648;23.270;2023-06-10T16:08:41;27.60;9.40
1021;DHT22;499;42.648;23.270;2023-06-10T16:11:08;27.50;9.50